sensor_id;sensor_type;location;lat;lon;timestamp;P1;durP1;ratioP1;P2;durP2;ratioP2
27489;SDS011;14925;51.026;13.752;2023-03-14T00:01:48;4.72;;;3.50;;
27489;SDS011;14925;51.026;13.752;2023-03-14T00:04:17;3.78;;;2.65;;
27489;SDS011;14925;51.026;13.752;2023-03-14T00:06:48;5.45;;;2.70;;
27489;SDS011;14925;51.026;13.752;2023-03-14T00:09:14;5.57;;;2.80;;
27489;SDS011;14925;51.026;13.752;2023-03-14T00:11:46;5.68;;;2.47;;
27489;SDS011;14925;51.026;13.752;2023-03-14T00:14:12;4.07;;;2.70;;
27489;SDS011;14925;51.026;13.752;2023-03-14T00:16:48;4.03;;;2.10;;
27489;SDS011;14925;51.026;13.752;2023-03-14T00:19:22;4.55;;;2.60;;
27489;SDS011;14925;51.026;13.752;2023-03-14T00:21:48;5.60;;;2.53;;
27489;SDS011;14925;51.026;13.752;2023-03-14T00:24:16;5.57;;;2.60;;
27489;SDS011;14925;51.026;13.752;2023-03-14T00:26:41;10.55;;;3.15;;
27489;SDS011;14925;51.026;13.752;2023-03-14T00:29:07;3.97;;;2.88;;
27489;SDS011;14925;51.026;13.752;2023-03-14T00:31:33;3.20;;;2.90;;
27489;SDS011;14925;51.026;13.752;2023-03-14T00:34:01;4.25;;;2.90;;
27489;SDS011;14925;51.026;13.752;2023-03-14T00:36:26;4.75;;;3.67;;
27489;SDS011;14925;51.026;13.752;2023-03-14T00:38:55;4.47;;;3.17;;
27489;SDS011;14925;51.026;13.752;2023-03-14T00:41:23;7.03;;;3.80;;
27489;SDS011;14925;51.026;13.752;2023-03-14T00:43:56;6.40;;;3.53;;
27489;SDS011;14925;51.026;13.752;2023-03-14T00:46:27;4.80;;;3.58;;
27489;SDS011;14925;51.026;13.752;2023-03-14T00:48:57;5.53;;;3.75;;
27489;SDS011;14925;51.026;13.752;2023-03-14T00:51:22;5.60;;;3.40;;
27489;SDS011;14925;51.026;13.752;2023-03-14T00:53:51;5.70;;;3.83;;
27489;SDS011;14925;51.026;13.752;2023-03-14T00:56:16;6.25;;;3.60;;
27489;SDS011;14925;51.026;13.752;2023-03-14T00:58:42;7.20;;;4.53;;
27489;SDS011;14925;51.026;13.752;2023-03-14T01:01:12;7.38;;;4.47;;
27489;SDS011;14925;51.026;13.752;2023-03-14T01:03:44;5.00;;;3.03;;
27489;SDS011;14925;51.026;13.752;2023-03-14T01:06:11;6.82;;;5.10;;
27489;SDS011;14925;51.026;13.752;2023-03-14T01:08:42;8.32;;;4.90;;
27489;SDS011;14925;51.026;13.752;2023-03-14T01:11:29;9.25;;;5.25;;
27489;SDS011;14925;51.026;13.752;2023-03-14T01:13:57;8.05;;;5.40;;
27489;SDS011;14925;51.026;13.752;2023-03-14T01:16:24;6.00;;;4.63;;
27489;SDS011;14925;51.026;13.752;2023-03-14T01:18:53;10.02;;;7.07;;
27489;SDS011;14925;51.026;13.752;2023-03-14T01:23:46;8.75;;;6.07;;
27489;SDS011;14925;51.026;13.752;2023-03-14T01:26:15;12.13;;;8.75;;
27489;SDS011;14925;51.026;13.752;2023-03-14T01:28:48;12.05;;;7.15;;
27489;SDS011;14925;51.026;13.752;2023-03-14T01:31:15;11.02;;;7.53;;
27489;SDS011;14925;51.026;13.752;2023-03-14T01:33:43;8.77;;;6.68;;
27489;SDS011;14925;51.026;13.752;2023-03-14T01:36:09;9.98;;;5.70;;
27489;SDS011;14925;51.026;13.752;2023-03-14T01:38:38;10.52;;;6.43;;
27489;SDS011;14925;51.026;13.752;2023-03-14T01:41:11;4.55;;;3.63;;
27489;SDS011;14925;51.026;13.752;2023-03-14T01:43:40;6.82;;;4.40;;
27489;SDS011;14925;51.026;13.752;2023-03-14T01:46:20;5.28;;;4.07;;
27489;SDS011;14925;51.026;13.752;2023-03-14T01:49:11;4.93;;;4.28;;
27489;SDS011;14925;51.026;13.752;2023-03-14T01:59:51;5.13;;;4.53;;
27489;SDS011;14925;51.026;13.752;2023-03-14T02:02:18;5.18;;;4.25;;
27489;SDS011;14925;51.026;13.752;2023-03-14T02:04:49;5.75;;;5.15;;
27489;SDS011;14925;51.026;13.752;2023-03-14T02:07:20;4.50;;;3.70;;
27489;SDS011;14925;51.026;13.752;2023-03-14T02:09:50;7.18;;;4.35;;
27489;SDS011;14925;51.026;13.752;2023-03-14T02:12:16;4.43;;;2.85;;
27489;SDS011;14925;51.026;13.752;2023-03-14T02:14:45;3.00;;;2.70;;
27489;SDS011;14925;51.026;13.752;2023-03-14T02:17:20;5.25;;;3.60;;
27489;SDS011;14925;51.026;13.752;2023-03-14T02:22:51;3.10;;;2.30;;
27489;SDS011;14925;51.026;13.752;2023-03-14T02:28:03;2.47;;;2.20;;
27489;SDS011;14925;51.026;13.752;2023-03-14T02:30:41;3.40;;;2.00;;
27489;SDS011;14925;51.026;13.752;2023-03-14T02:33:13;1.75;;;1.65;;
27489;SDS011;14925;51.026;13.752;2023-03-14T02:35:44;2.05;;;1.80;;
27489;SDS011;14925;51.026;13.752;2023-03-14T02:40:56;2.15;;;1.92;;
27489;SDS011;14925;51.026;13.752;2023-03-14T02:43:34;2.35;;;1.48;;
27489;SDS011;14925;51.026;13.752;2023-03-14T02:46:05;1.83;;;1.20;;
27489;SDS011;14925;51.026;13.752;2023-03-14T02:48:53;1.23;;;0.80;;
27489;SDS011;14925;51.026;13.752;2023-03-14T02:51:40;1.00;;;0.80;;
27489;SDS011;14925;51.026;13.752;2023-03-14T02:54:09;0.95;;;0.70;;
27489;SDS011;14925;51.026;13.752;2023-03-14T02:56:35;0.60;;;0.60;;
27489;SDS011;14925;51.026;13.752;2023-03-14T02:59:09;0.77;;;0.60;;
27489;SDS011;14925;51.026;13.752;2023-03-14T03:04:18;2.92;;;0.80;;
27489;SDS011;14925;51.026;13.752;2023-03-14T03:06:52;0.65;;;0.60;;
27489;SDS011;14925;51.026;13.752;2023-03-14T03:09:20;0.98;;;0.40;;
27489;SDS011;14925;51.026;13.752;2023-03-14T03:11:51;1.42;;;0.55;;
27489;SDS011;14925;51.026;13.752;2023-03-14T03:14:37;1.33;;;0.47;;
27489;SDS011;14925;51.026;13.752;2023-03-14T03:17:05;0.70;;;0.40;;
27489;SDS011;14925;51.026;13.752;2023-03-14T03:19:34;0.40;;;0.40;;
27489;SDS011;14925;51.026;13.752;2023-03-14T03:22:05;1.83;;;0.50;;
27489;SDS011;14925;51.026;13.752;2023-03-14T03:24:37;0.47;;;0.40;;
27489;SDS011;14925;51.026;13.752;2023-03-14T03:27:08;0.50;;;0.38;;
27489;SDS011;14925;51.026;13.752;2023-03-14T03:29:36;0.50;;;0.40;;
27489;SDS011;14925;51.026;13.752;2023-03-14T03:32:02;0.73;;;0.40;;
27489;SDS011;14925;51.026;13.752;2023-03-14T03:34:28;1.55;;;0.38;;
27489;SDS011;14925;51.026;13.752;2023-03-14T03:37:04;0.30;;;0.30;;
27489;SDS011;14925;51.026;13.752;2023-03-14T03:39:29;0.82;;;0.45;;
27489;SDS011;14925;51.026;13.752;2023-03-14T03:42:02;0.70;;;0.50;;
27489;SDS011;14925;51.026;13.752;2023-03-14T03:44:30;1.98;;;0.63;;
27489;SDS011;14925;51.026;13.752;2023-03-14T03:46:55;0.73;;;0.60;;
27489;SDS011;14925;51.026;13.752;2023-03-14T03:49:31;0.47;;;0.40;;
27489;SDS011;14925;51.026;13.752;2023-03-14T03:51:59;1.05;;;0.63;;
27489;SDS011;14925;51.026;13.752;2023-03-14T03:54:27;0.70;;;0.57;;
27489;SDS011;14925;51.026;13.752;2023-03-14T03:56:56;1.27;;;0.63;;
27489;SDS011;14925;51.026;13.752;2023-03-14T03:59:22;2.28;;;0.70;;
27489;SDS011;14925;51.026;13.752;2023-03-14T04:01:50;1.08;;;0.77;;
27489;SDS011;14925;51.026;13.752;2023-03-14T04:04:25;2.53;;;0.75;;
27489;SDS011;14925;51.026;13.752;2023-03-14T04:06:53;1.15;;;0.88;;
27489;SDS011;14925;51.026;13.752;2023-03-14T04:09:27;1.27;;;0.70;;
27489;SDS011;14925;51.026;13.752;2023-03-14T04:11:56;1.15;;;0.50;;
27489;SDS011;14925;51.026;13.752;2023-03-14T04:14:23;0.75;;;0.40;;
27489;SDS011;14925;51.026;13.752;2023-03-14T04:16:52;1.23;;;0.50;;
27489;SDS011;14925;51.026;13.752;2023-03-14T04:19:17;0.70;;;0.35;;
27489;SDS011;14925;51.026;13.752;2023-03-14T04:22:06;0.77;;;0.47;;
27489;SDS011;14925;51.026;13.752;2023-03-14T04:24:44;0.40;;;0.30;;
27489;SDS011;14925;51.026;13.752;2023-03-14T04:27:10;0.80;;;0.40;;
27489;SDS011;14925;51.026;13.752;2023-03-14T04:29:39;0.40;;;0.40;;
27489;SDS011;14925;51.026;13.752;2023-03-14T04:32:08;2.00;;;0.40;;
27489;SDS011;14925;51.026;13.752;2023-03-14T04:34:59;2.58;;;0.60;;
27489;SDS011;14925;51.026;13.752;2023-03-14T04:37:27;1.20;;;0.52;;
27489;SDS011;14925;51.026;13.752;2023-03-14T04:39:53;0.80;;;0.50;;
27489;SDS011;14925;51.026;13.752;2023-03-14T04:42:19;1.30;;;0.55;;
27489;SDS011;14925;51.026;13.752;2023-03-14T04:44:45;1.52;;;0.40;;
27489;SDS011;14925;51.026;13.752;2023-03-14T04:47:11;1.58;;;0.40;;
27489;SDS011;14925;51.026;13.752;2023-03-14T04:49:37;1.70;;;0.60;;
27489;SDS011;14925;51.026;13.752;2023-03-14T04:52:04;2.47;;;0.68;;
27489;SDS011;14925;51.026;13.752;2023-03-14T04:54:35;0.55;;;0.50;;
27489;SDS011;14925;51.026;13.752;2023-03-14T04:57:01;1.80;;;0.40;;
27489;SDS011;14925;51.026;13.752;2023-03-14T04:59:31;1.88;;;0.60;;
27489;SDS011;14925;51.026;13.752;2023-03-14T05:02:07;2.83;;;0.40;;
27489;SDS011;14925;51.026;13.752;2023-03-14T05:04:33;2.30;;;0.60;;
27489;SDS011;14925;51.026;13.752;2023-03-14T05:07:04;1.63;;;0.65;;
27489;SDS011;14925;51.026;13.752;2023-03-14T05:09:32;2.63;;;0.70;;
27489;SDS011;14925;51.026;13.752;2023-03-14T05:12:00;5.75;;;1.33;;
27489;SDS011;14925;51.026;13.752;2023-03-14T05:14:35;4.25;;;1.02;;
27489;SDS011;14925;51.026;13.752;2023-03-14T05:17:06;3.17;;;0.73;;
27489;SDS011;14925;51.026;13.752;2023-03-14T05:19:35;4.18;;;0.95;;
27489;SDS011;14925;51.026;13.752;2023-03-14T05:22:03;4.15;;;1.05;;
27489;SDS011;14925;51.026;13.752;2023-03-14T05:24:34;6.15;;;1.20;;
27489;SDS011;14925;51.026;13.752;2023-03-14T05:27:07;4.68;;;1.20;;
27489;SDS011;14925;51.026;13.752;2023-03-14T05:29:42;6.20;;;1.02;;
27489;SDS011;14925;51.026;13.752;2023-03-14T05:32:11;6.28;;;1.38;;
27489;SDS011;14925;51.026;13.752;2023-03-14T05:34:42;3.45;;;0.93;;
27489;SDS011;14925;51.026;13.752;2023-03-14T05:37:09;3.50;;;1.20;;
27489;SDS011;14925;51.026;13.752;2023-03-14T05:39:38;6.57;;;1.25;;
27489;SDS011;14925;51.026;13.752;2023-03-14T05:42:12;4.00;;;1.00;;
27489;SDS011;14925;51.026;13.752;2023-03-14T05:44:40;3.80;;;1.00;;
27489;SDS011;14925;51.026;13.752;2023-03-14T05:47:08;7.10;;;1.48;;
27489;SDS011;14925;51.026;13.752;2023-03-14T05:49:36;4.22;;;1.05;;
27489;SDS011;14925;51.026;13.752;2023-03-14T05:52:07;4.65;;;1.10;;
27489;SDS011;14925;51.026;13.752;2023-03-14T05:54:32;6.47;;;1.40;;
27489;SDS011;14925;51.026;13.752;2023-03-14T05:56:58;6.47;;;1.30;;
27489;SDS011;14925;51.026;13.752;2023-03-14T05:59:23;5.60;;;1.55;;
27489;SDS011;14925;51.026;13.752;2023-03-14T06:01:52;11.98;;;1.50;;
27489;SDS011;14925;51.026;13.752;2023-03-14T06:04:22;5.60;;;1.45;;
27489;SDS011;14925;51.026;13.752;2023-03-14T06:06:49;5.13;;;1.10;;
27489;SDS011;14925;51.026;13.752;2023-03-14T06:09:15;6.10;;;1.17;;
27489;SDS011;14925;51.026;13.752;2023-03-14T06:11:40;5.97;;;1.30;;
27489;SDS011;14925;51.026;13.752;2023-03-14T06:14:13;9.27;;;1.20;;
27489;SDS011;14925;51.026;13.752;2023-03-14T06:16:41;9.20;;;3.15;;
27489;SDS011;14925;51.026;13.752;2023-03-14T06:19:07;8.20;;;2.50;;
27489;SDS011;14925;51.026;13.752;2023-03-14T06:21:40;6.65;;;1.83;;
27489;SDS011;14925;51.026;13.752;2023-03-14T06:24:06;7.80;;;1.85;;
27489;SDS011;14925;51.026;13.752;2023-03-14T06:26:31;6.28;;;1.48;;
27489;SDS011;14925;51.026;13.752;2023-03-14T06:28:59;6.97;;;1.38;;
27489;SDS011;14925;51.026;13.752;2023-03-14T06:31:34;7.30;;;1.25;;
27489;SDS011;14925;51.026;13.752;2023-03-14T06:34:04;5.38;;;1.20;;
27489;SDS011;14925;51.026;13.752;2023-03-14T06:36:32;9.68;;;1.63;;
27489;SDS011;14925;51.026;13.752;2023-03-14T06:39:10;4.85;;;1.23;;
27489;SDS011;14925;51.026;13.752;2023-03-14T06:41:45;4.65;;;1.50;;
27489;SDS011;14925;51.026;13.752;2023-03-14T06:44:11;7.32;;;1.50;;
27489;SDS011;14925;51.026;13.752;2023-03-14T06:46:44;4.72;;;1.08;;
27489;SDS011;14925;51.026;13.752;2023-03-14T06:49:12;5.72;;;1.40;;
27489;SDS011;14925;51.026;13.752;2023-03-14T06:51:37;5.80;;;1.20;;
27489;SDS011;14925;51.026;13.752;2023-03-14T06:54:03;8.27;;;1.50;;
27489;SDS011;14925;51.026;13.752;2023-03-14T06:56:36;6.40;;;1.45;;
27489;SDS011;14925;51.026;13.752;2023-03-14T06:59:09;10.30;;;1.20;;
27489;SDS011;14925;51.026;13.752;2023-03-14T07:01:34;8.25;;;1.75;;
27489;SDS011;14925;51.026;13.752;2023-03-14T07:04:02;9.10;;;1.20;;
27489;SDS011;14925;51.026;13.752;2023-03-14T07:06:28;9.50;;;1.38;;
27489;SDS011;14925;51.026;13.752;2023-03-14T07:08:56;6.35;;;1.23;;
27489;SDS011;14925;51.026;13.752;2023-03-14T07:11:24;6.07;;;1.50;;
27489;SDS011;14925;51.026;13.752;2023-03-14T07:13:57;8.07;;;1.40;;
27489;SDS011;14925;51.026;13.752;2023-03-14T07:16:26;4.63;;;1.05;;
27489;SDS011;14925;51.026;13.752;2023-03-14T07:18:53;10.90;;;1.60;;
27489;SDS011;14925;51.026;13.752;2023-03-14T07:21:24;4.93;;;1.58;;
27489;SDS011;14925;51.026;13.752;2023-03-14T07:23:49;8.15;;;1.63;;
27489;SDS011;14925;51.026;13.752;2023-03-14T07:26:18;6.22;;;1.70;;
27489;SDS011;14925;51.026;13.752;2023-03-14T07:28:51;8.13;;;1.50;;
27489;SDS011;14925;51.026;13.752;2023-03-14T07:31:22;5.85;;;1.90;;
27489;SDS011;14925;51.026;13.752;2023-03-14T07:33:47;6.70;;;2.17;;
27489;SDS011;14925;51.026;13.752;2023-03-14T07:36:12;5.18;;;1.80;;
27489;SDS011;14925;51.026;13.752;2023-03-14T07:38:38;8.65;;;2.20;;
27489;SDS011;14925;51.026;13.752;2023-03-14T07:41:06;8.77;;;2.50;;
27489;SDS011;14925;51.026;13.752;2023-03-14T07:43:32;8.45;;;2.10;;
27489;SDS011;14925;51.026;13.752;2023-03-14T07:46:00;8.18;;;2.22;;
27489;SDS011;14925;51.026;13.752;2023-03-14T07:48:28;10.32;;;2.00;;
27489;SDS011;14925;51.026;13.752;2023-03-14T07:50:54;6.63;;;1.65;;
27489;SDS011;14925;51.026;13.752;2023-03-14T07:53:23;8.07;;;1.60;;
27489;SDS011;14925;51.026;13.752;2023-03-14T07:55:50;6.15;;;1.35;;
27489;SDS011;14925;51.026;13.752;2023-03-14T07:58:21;5.03;;;1.50;;
27489;SDS011;14925;51.026;13.752;2023-03-14T08:00:47;4.30;;;1.27;;
27489;SDS011;14925;51.026;13.752;2023-03-14T08:03:16;5.78;;;1.40;;
27489;SDS011;14925;51.026;13.752;2023-03-14T08:05:47;4.13;;;1.00;;
27489;SDS011;14925;51.026;13.752;2023-03-14T08:08:18;4.57;;;1.30;;
27489;SDS011;14925;51.026;13.752;2023-03-14T08:10:50;3.83;;;1.50;;
27489;SDS011;14925;51.026;13.752;2023-03-14T08:13:15;4.38;;;1.10;;
27489;SDS011;14925;51.026;13.752;2023-03-14T08:15:54;4.95;;;1.23;;
27489;SDS011;14925;51.026;13.752;2023-03-14T08:18:19;8.43;;;0.90;;
27489;SDS011;14925;51.026;13.752;2023-03-14T08:20:45;3.33;;;0.85;;
27489;SDS011;14925;51.026;13.752;2023-03-14T08:23:10;4.10;;;0.80;;
27489;SDS011;14925;51.026;13.752;2023-03-14T08:25:37;3.67;;;0.70;;
27489;SDS011;14925;51.026;13.752;2023-03-14T08:28:02;5.30;;;1.02;;
27489;SDS011;14925;51.026;13.752;2023-03-14T08:30:29;4.25;;;0.90;;
27489;SDS011;14925;51.026;13.752;2023-03-14T08:32:58;4.32;;;0.90;;
27489;SDS011;14925;51.026;13.752;2023-03-14T08:35:26;3.05;;;0.82;;
27489;SDS011;14925;51.026;13.752;2023-03-14T08:37:52;3.60;;;0.98;;
27489;SDS011;14925;51.026;13.752;2023-03-14T08:40:20;2.78;;;0.80;;
27489;SDS011;14925;51.026;13.752;2023-03-14T08:42:47;2.17;;;0.70;;
27489;SDS011;14925;51.026;13.752;2023-03-14T08:45:14;2.97;;;0.70;;
27489;SDS011;14925;51.026;13.752;2023-03-14T08:47:46;1.60;;;0.60;;
27489;SDS011;14925;51.026;13.752;2023-03-14T08:50:12;4.32;;;0.70;;
27489;SDS011;14925;51.026;13.752;2023-03-14T08:52:39;3.05;;;0.80;;
27489;SDS011;14925;51.026;13.752;2023-03-14T08:55:08;4.18;;;0.70;;
27489;SDS011;14925;51.026;13.752;2023-03-14T08:57:36;4.50;;;0.70;;
27489;SDS011;14925;51.026;13.752;2023-03-14T09:00:03;1.55;;;0.60;;
27489;SDS011;14925;51.026;13.752;2023-03-14T09:02:40;3.80;;;1.10;;
27489;SDS011;14925;51.026;13.752;2023-03-14T09:05:06;3.80;;;0.85;;
27489;SDS011;14925;51.026;13.752;2023-03-14T09:07:35;1.65;;;0.70;;
27489;SDS011;14925;51.026;13.752;2023-03-14T09:10:03;4.72;;;0.80;;
27489;SDS011;14925;51.026;13.752;2023-03-14T09:12:33;2.95;;;0.70;;
27489;SDS011;14925;51.026;13.752;2023-03-14T09:14:58;1.70;;;0.73;;
27489;SDS011;14925;51.026;13.752;2023-03-14T09:17:24;3.65;;;0.93;;
27489;SDS011;14925;51.026;13.752;2023-03-14T09:19:49;3.38;;;0.80;;
27489;SDS011;14925;51.026;13.752;2023-03-14T09:22:18;4.03;;;0.90;;
27489;SDS011;14925;51.026;13.752;2023-03-14T09:24:46;3.30;;;0.80;;
27489;SDS011;14925;51.026;13.752;2023-03-14T09:27:11;2.38;;;0.85;;
27489;SDS011;14925;51.026;13.752;2023-03-14T09:29:37;4.22;;;0.95;;
27489;SDS011;14925;51.026;13.752;2023-03-14T09:32:02;3.92;;;1.17;;
27489;SDS011;14925;51.026;13.752;2023-03-14T09:34:31;5.10;;;1.10;;
27489;SDS011;14925;51.026;13.752;2023-03-14T09:36:59;3.83;;;0.80;;
27489;SDS011;14925;51.026;13.752;2023-03-14T09:39:25;4.18;;;0.63;;
27489;SDS011;14925;51.026;13.752;2023-03-14T09:41:53;1.83;;;0.52;;
27489;SDS011;14925;51.026;13.752;2023-03-14T09:44:27;1.80;;;0.70;;
27489;SDS011;14925;51.026;13.752;2023-03-14T09:47:06;4.40;;;0.60;;
27489;SDS011;14925;51.026;13.752;2023-03-14T09:49:36;1.58;;;0.73;;
27489;SDS011;14925;51.026;13.752;2023-03-14T09:52:13;5.40;;;0.85;;
27489;SDS011;14925;51.026;13.752;2023-03-14T09:54:47;4.70;;;1.10;;
27489;SDS011;14925;51.026;13.752;2023-03-14T09:57:19;4.63;;;1.10;;
27489;SDS011;14925;51.026;13.752;2023-03-14T10:02:31;2.15;;;0.68;;
27489;SDS011;14925;51.026;13.752;2023-03-14T10:04:59;1.88;;;0.60;;
27489;SDS011;14925;51.026;13.752;2023-03-14T10:07:27;2.10;;;0.60;;
27489;SDS011;14925;51.026;13.752;2023-03-14T10:09:54;4.47;;;0.77;;
27489;SDS011;14925;51.026;13.752;2023-03-14T10:12:34;6.30;;;0.68;;
27489;SDS011;14925;51.026;13.752;2023-03-14T10:15:06;4.70;;;0.77;;
27489;SDS011;14925;51.026;13.752;2023-03-14T10:17:43;3.92;;;0.73;;
27489;SDS011;14925;51.026;13.752;2023-03-14T10:20:28;2.78;;;0.60;;
27489;SDS011;14925;51.026;13.752;2023-03-14T10:23:02;4.55;;;0.52;;
27489;SDS011;14925;51.026;13.752;2023-03-14T10:25:33;2.92;;;0.57;;
27489;SDS011;14925;51.026;13.752;2023-03-14T10:28:03;1.42;;;0.60;;
27489;SDS011;14925;51.026;13.752;2023-03-14T10:30:52;3.05;;;0.80;;
27489;SDS011;14925;51.026;13.752;2023-03-14T10:35:52;2.50;;;0.60;;
27489;SDS011;14925;51.026;13.752;2023-03-14T10:38:19;3.42;;;0.75;;
27489;SDS011;14925;51.026;13.752;2023-03-14T10:40:49;3.60;;;0.63;;
27489;SDS011;14925;51.026;13.752;2023-03-14T10:43:18;2.90;;;0.80;;
27489;SDS011;14925;51.026;13.752;2023-03-14T10:45:51;2.33;;;0.68;;
27489;SDS011;14925;51.026;13.752;2023-03-14T10:48:33;3.60;;;0.60;;
27489;SDS011;14925;51.026;13.752;2023-03-14T10:53:40;4.53;;;1.65;;
27489;SDS011;14925;51.026;13.752;2023-03-14T10:56:15;4.13;;;1.30;;
27489;SDS011;14925;51.026;13.752;2023-03-14T10:58:46;2.45;;;0.77;;
27489;SDS011;14925;51.026;13.752;2023-03-14T11:03:57;1.85;;;0.47;;
27489;SDS011;14925;51.026;13.752;2023-03-14T11:09:05;3.90;;;0.43;;
27489;SDS011;14925;51.026;13.752;2023-03-14T11:11:53;1.25;;;0.50;;
27489;SDS011;14925;51.026;13.752;2023-03-14T11:14:29;1.70;;;0.50;;
27489;SDS011;14925;51.026;13.752;2023-03-14T11:17:14;1.10;;;0.57;;
27489;SDS011;14925;51.026;13.752;2023-03-14T11:19:49;1.90;;;0.60;;
27489;SDS011;14925;51.026;13.752;2023-03-14T11:27:51;5.57;;;0.80;;
27489;SDS011;14925;51.026;13.752;2023-03-14T11:33:12;4.63;;;0.75;;
27489;SDS011;14925;51.026;13.752;2023-03-14T11:38:52;7.15;;;1.10;;
27489;SDS011;14925;51.026;13.752;2023-03-14T11:43:53;3.25;;;0.80;;
27489;SDS011;14925;51.026;13.752;2023-03-14T11:46:31;4.03;;;0.80;;
27489;SDS011;14925;51.026;13.752;2023-03-14T11:49:42;4.38;;;0.77;;
27489;SDS011;14925;51.026;13.752;2023-03-14T11:52:25;3.90;;;1.10;;
27489;SDS011;14925;51.026;13.752;2023-03-14T11:54:56;1.75;;;0.88;;
27489;SDS011;14925;51.026;13.752;2023-03-14T11:57:25;0.90;;;0.50;;
27489;SDS011;14925;51.026;13.752;2023-03-14T12:11:36;2.13;;;0.60;;
27489;SDS011;14925;51.026;13.752;2023-03-14T12:16:52;4.18;;;0.95;;
27489;SDS011;14925;51.026;13.752;2023-03-14T12:21:53;3.15;;;0.68;;
27489;SDS011;14925;51.026;13.752;2023-03-14T12:24:30;3.75;;;0.60;;
27489;SDS011;14925;51.026;13.752;2023-03-14T12:26:58;4.37;;;1.00;;
27489;SDS011;14925;51.026;13.752;2023-03-14T12:29:30;2.05;;;0.50;;
27489;SDS011;14925;51.026;13.752;2023-03-14T12:34:48;3.20;;;0.70;;
27489;SDS011;14925;51.026;13.752;2023-03-14T12:40:13;1.45;;;0.47;;
27489;SDS011;14925;51.026;13.752;2023-03-14T12:46:06;1.50;;;0.50;;
27489;SDS011;14925;51.026;13.752;2023-03-14T12:48:37;0.87;;;0.40;;
27489;SDS011;14925;51.026;13.752;2023-03-14T12:51:04;1.95;;;0.30;;
27489;SDS011;14925;51.026;13.752;2023-03-14T12:59:30;0.55;;;0.30;;
27489;SDS011;14925;51.026;13.752;2023-03-14T13:01:58;1.27;;;0.40;;
27489;SDS011;14925;51.026;13.752;2023-03-14T13:04:49;0.60;;;0.40;;
27489;SDS011;14925;51.026;13.752;2023-03-14T13:15:31;0.57;;;0.25;;
27489;SDS011;14925;51.026;13.752;2023-03-14T13:18:03;1.00;;;0.25;;
27489;SDS011;14925;51.026;13.752;2023-03-14T13:20:36;2.38;;;0.30;;
27489;SDS011;14925;51.026;13.752;2023-03-14T13:23:22;1.42;;;0.38;;
27489;SDS011;14925;51.026;13.752;2023-03-14T13:25:49;2.30;;;0.32;;
27489;SDS011;14925;51.026;13.752;2023-03-14T13:28:15;1.27;;;0.20;;
27489;SDS011;14925;51.026;13.752;2023-03-14T13:30:45;0.55;;;0.20;;
27489;SDS011;14925;51.026;13.752;2023-03-14T13:33:22;1.75;;;0.28;;
27489;SDS011;14925;51.026;13.752;2023-03-14T13:35:58;0.73;;;0.52;;
27489;SDS011;14925;51.026;13.752;2023-03-14T13:38:28;0.55;;;0.20;;
27489;SDS011;14925;51.026;13.752;2023-03-14T13:41:00;1.00;;;0.30;;
27489;SDS011;14925;51.026;13.752;2023-03-14T13:43:33;0.38;;;0.20;;
27489;SDS011;14925;51.026;13.752;2023-03-14T13:46:22;0.90;;;0.30;;
27489;SDS011;14925;51.026;13.752;2023-03-14T13:48:52;1.55;;;0.20;;
27489;SDS011;14925;51.026;13.752;2023-03-14T13:51:26;1.23;;;0.40;;
27489;SDS011;14925;51.026;13.752;2023-03-14T13:53:56;1.70;;;0.40;;
27489;SDS011;14925;51.026;13.752;2023-03-14T13:56:24;2.30;;;0.47;;
27489;SDS011;14925;51.026;13.752;2023-03-14T13:58:53;0.55;;;0.20;;
27489;SDS011;14925;51.026;13.752;2023-03-14T14:04:14;2.83;;;0.50;;
27489;SDS011;14925;51.026;13.752;2023-03-14T14:06:47;0.70;;;0.20;;
27489;SDS011;14925;51.026;13.752;2023-03-14T14:11:46;1.23;;;0.57;;
27489;SDS011;14925;51.026;13.752;2023-03-14T14:14:34;1.70;;;0.43;;
27489;SDS011;14925;51.026;13.752;2023-03-14T14:17:05;1.13;;;0.50;;
27489;SDS011;14925;51.026;13.752;2023-03-14T14:19:33;0.57;;;0.30;;
27489;SDS011;14925;51.026;13.752;2023-03-14T14:22:00;0.63;;;0.40;;
27489;SDS011;14925;51.026;13.752;2023-03-14T14:27:14;0.60;;;0.30;;
27489;SDS011;14925;51.026;13.752;2023-03-14T14:29:41;2.15;;;0.43;;
27489;SDS011;14925;51.026;13.752;2023-03-14T14:34:45;1.35;;;0.40;;
27489;SDS011;14925;51.026;13.752;2023-03-14T14:37:43;0.30;;;0.28;;
27489;SDS011;14925;51.026;13.752;2023-03-14T14:40:28;1.60;;;0.40;;
27489;SDS011;14925;51.026;13.752;2023-03-14T14:43:04;1.30;;;0.80;;
27489;SDS011;14925;51.026;13.752;2023-03-14T14:45:35;2.85;;;0.70;;
27489;SDS011;14925;51.026;13.752;2023-03-14T14:50:39;2.08;;;0.70;;
27489;SDS011;14925;51.026;13.752;2023-03-14T14:53:27;1.35;;;0.50;;
27489;SDS011;14925;51.026;13.752;2023-03-14T14:55:58;0.88;;;0.40;;
27489;SDS011;14925;51.026;13.752;2023-03-14T14:58:28;2.22;;;0.40;;
27489;SDS011;14925;51.026;13.752;2023-03-14T15:00:59;0.85;;;0.40;;
27489;SDS011;14925;51.026;13.752;2023-03-14T15:03:30;0.32;;;0.30;;
27489;SDS011;14925;51.026;13.752;2023-03-14T15:05:57;0.60;;;0.30;;
27489;SDS011;14925;51.026;13.752;2023-03-14T15:08:33;0.98;;;0.20;;
27489;SDS011;14925;51.026;13.752;2023-03-14T15:10:58;0.50;;;0.30;;
27489;SDS011;14925;51.026;13.752;2023-03-14T15:13:27;1.65;;;0.55;;
27489;SDS011;14925;51.026;13.752;2023-03-14T15:15:52;0.60;;;0.25;;
27489;SDS011;14925;51.026;13.752;2023-03-14T15:18:22;0.40;;;0.30;;
27489;SDS011;14925;51.026;13.752;2023-03-14T15:21:13;1.15;;;0.28;;
27489;SDS011;14925;51.026;13.752;2023-03-14T15:23:38;0.63;;;0.30;;
27489;SDS011;14925;51.026;13.752;2023-03-14T15:26:13;1.23;;;0.30;;
27489;SDS011;14925;51.026;13.752;2023-03-14T15:28:44;1.02;;;0.30;;
27489;SDS011;14925;51.026;13.752;2023-03-14T15:31:14;2.85;;;0.25;;
27489;SDS011;14925;51.026;13.752;2023-03-14T15:33:40;0.98;;;0.30;;
27489;SDS011;14925;51.026;13.752;2023-03-14T15:36:42;4.13;;;0.35;;
27489;SDS011;14925;51.026;13.752;2023-03-14T15:39:06;1.25;;;0.30;;
27489;SDS011;14925;51.026;13.752;2023-03-14T15:41:31;1.23;;;0.30;;
27489;SDS011;14925;51.026;13.752;2023-03-14T15:43:57;1.70;;;0.20;;
27489;SDS011;14925;51.026;13.752;2023-03-14T15:46:22;0.20;;;0.20;;
27489;SDS011;14925;51.026;13.752;2023-03-14T15:48:48;2.47;;;0.30;;
27489;SDS011;14925;51.026;13.752;2023-03-14T15:51:15;0.43;;;0.40;;
27489;SDS011;14925;51.026;13.752;2023-03-14T15:53:41;2.15;;;0.50;;
27489;SDS011;14925;51.026;13.752;2023-03-14T15:56:11;0.75;;;0.40;;
27489;SDS011;14925;51.026;13.752;2023-03-14T15:58:41;0.90;;;0.50;;
27489;SDS011;14925;51.026;13.752;2023-03-14T16:01:07;1.35;;;0.30;;
27489;SDS011;14925;51.026;13.752;2023-03-14T16:03:34;0.52;;;0.38;;
27489;SDS011;14925;51.026;13.752;2023-03-14T16:06:03;0.68;;;0.30;;
27489;SDS011;14925;51.026;13.752;2023-03-14T16:08:29;1.85;;;0.40;;
27489;SDS011;14925;51.026;13.752;2023-03-14T16:10:55;0.68;;;0.30;;
27489;SDS011;14925;51.026;13.752;2023-03-14T16:13:22;1.10;;;0.60;;
27489;SDS011;14925;51.026;13.752;2023-03-14T16:16:00;3.53;;;0.45;;
27489;SDS011;14925;51.026;13.752;2023-03-14T16:18:31;1.95;;;0.50;;
27489;SDS011;14925;51.026;13.752;2023-03-14T16:20:58;0.40;;;0.40;;
27489;SDS011;14925;51.026;13.752;2023-03-14T16:23:31;1.27;;;0.40;;
27489;SDS011;14925;51.026;13.752;2023-03-14T16:25:58;1.25;;;0.47;;
27489;SDS011;14925;51.026;13.752;2023-03-14T16:28:24;1.27;;;0.40;;
27489;SDS011;14925;51.026;13.752;2023-03-14T16:31:00;0.95;;;0.32;;
27489;SDS011;14925;51.026;13.752;2023-03-14T16:33:30;1.63;;;0.47;;
27489;SDS011;14925;51.026;13.752;2023-03-14T16:35:57;0.40;;;0.40;;